Time;durP1;ratioP1;P1;durP2;ratioP2;P2;SDS_P1;SDS_P2;PMS_P1;PMS_P2;Temp;Humidity;BMP_temperature;BMP_pressure;BME280_temperature;BME280_humidity;BME280_pressure;Samples;Min_cycle;Max_cycle;Signal;HPM_P1;HPM_P2
2021/12/01 00:02:15;;;;;;;42.40;17.15;;;9.30;99.90;;;;;;5084445;22;20159;-80
2021/12/01 00:04:40;;;;;;;41.67;16.92;;;9.80;99.90;;;;;;5046980;28;20057;-80
2021/12/01 00:07:08;;;;;;;38.78;16.95;;;9.70;99.90;;;;;;5047747;28;20066;-80
2021/12/01 00:09:33;;;;;;;42.35;16.25;;;9.90;99.90;;;;;;5047995;28;20045;-80
2021/12/01 00:11:59;;;;;;;38.15;15.63;;;9.70;99.90;;;;;;5049738;23;20063;-81
2021/12/01 00:14:25;;;;;;;34.95;14.98;;;9.40;99.90;;;;;;5039059;22;20050;-80
2021/12/01 00:16:50;;;;;;;33.58;13.30;;;9.80;99.90;;;;;;5055117;22;20496;-80
2021/12/01 00:19:16;;;;;;;30.48;13.80;;;10.30;99.90;;;;;;5039744;28;20050;-80
2021/12/01 00:21:42;;;;;;;33.83;13.40;;;10.00;99.90;;;;;;5044066;23;20053;-80
2021/12/01 00:24:08;;;;;;;30.70;12.80;;;9.80;99.90;;;;;;5066046;23;20064;-81
2021/12/01 00:26:34;;;;;;;31.15;12.07;;;9.40;99.90;;;;;;5072142;23;20110;-80
2021/12/01 00:28:59;;;;;;;25.20;12.00;;;9.40;99.90;;;;;;5043681;28;20079;-80
2021/12/01 00:31:25;;;;;;;30.88;12.65;;;10.10;99.90;;;;;;5061656;23;20098;-81
2021/12/01 00:33:51;;;;;;;26.27;11.70;;;10.20;99.90;;;;;;5079804;28;20045;-80
2021/12/01 00:36:17;;;;;;;31.15;12.68;;;10.30;99.90;;;;;;5081325;22;20184;-80
2021/12/01 00:38:44;;;;;;;25.13;11.95;;;10.40;99.90;;;;;;5043315;28;20076;-80
2021/12/01 00:41:11;;;;;;;27.70;12.57;;;9.50;99.90;;;;;;5049373;23;20044;-80
2021/12/01 00:43:39;;;;;;;28.45;12.27;;;10.20;99.90;;;;;;5078772;28;20040;-80
2021/12/01 00:46:12;;;;;;;26.88;11.77;;;10.20;99.90;;;;;;5081200;28;20123;-80
2021/12/01 00:48:38;;;;;;;28.30;10.63;;;9.60;99.90;;;;;;5063014;28;20079;-80
2021/12/01 00:51:04;;;;;;;25.50;10.95;;;10.10;99.90;;;;;;5062505;28;20028;-80
2021/12/01 00:53:30;;;;;;;20.83;8.13;;;9.80;99.90;;;;;;5064322;23;20066;-81
2021/12/01 00:55:59;;;;;;;26.80;8.93;;;10.20;99.90;;;;;;5091154;22;20056;-81
2021/12/01 00:58:25;;;;;;;22.45;9.15;;;9.40;99.90;;;;;;5023740;28;20048;-80
2021/12/01 01:00:51;;;;;;;19.25;8.02;;;10.40;99.90;;;;;;5042586;28;20041;-80
2021/12/01 01:03:18;;;;;;;18.50;6.70;;;9.80;99.90;;;;;;5025359;28;20549;-80
2021/12/01 01:05:44;;;;;;;19.98;7.50;;;9.50;99.90;;;;;;5055211;23;20060;-80
2021/12/01 01:08:10;;;;;;;19.17;7.32;;;10.30;99.90;;;;;;5034096;22;20033;-81
2021/12/01 01:18:24;;;;;;;19.30;6.57;;;9.50;99.90;;;;;;5046921;22;20108;-80
2021/12/01 01:20:50;;;;;;;15.75;5.47;;;9.50;99.90;;;;;;5045434;23;20042;-81
2021/12/01 01:23:16;;;;;;;17.35;5.80;;;9.60;99.90;;;;;;5068970;22;20063;-81
2021/12/01 01:25:42;;;;;;;13.80;4.35;;;9.60;99.90;;;;;;5046069;23;20053;-81
2021/12/01 01:28:07;;;;;;;14.27;4.45;;;9.50;99.90;;;;;;5052336;23;20123;-80
2021/12/01 01:30:33;;;;;;;11.18;4.65;;;9.50;99.90;;;;;;5047079;22;20060;-80
2021/12/01 01:33:00;;;;;;;11.25;4.30;;;9.50;99.90;;;;;;5035375;23;20459;-81
2021/12/01 01:35:26;;;;;;;15.20;4.82;;;9.80;99.90;;;;;;5031978;23;20044;-79
2021/12/01 01:37:52;;;;;;;13.13;3.88;;;10.40;99.90;;;;;;5073249;23;20055;-80
2021/12/01 01:40:18;;;;;;;13.85;3.92;;;9.50;99.90;;;;;;5050264;22;20050;-81
2021/12/01 01:42:44;;;;;;;13.50;3.97;;;9.90;99.90;;;;;;5045387;28;20044;-80
2021/12/01 01:45:10;;;;;;;9.32;3.63;;;10.00;99.90;;;;;;5049702;22;20059;-81
2021/12/01 01:47:36;;;;;;;10.70;3.15;;;10.20;99.90;;;;;;5045404;28;20056;-80
2021/12/01 01:50:34;;;;;;;5.47;2.28;;;10.30;99.90;;;;;;5045663;28;20036;-81
2021/12/01 01:53:01;;;;;;;9.80;2.85;;;9.50;99.90;;;;;;5045155;28;20360;-80
2021/12/01 01:55:26;;;;;;;5.93;2.45;;;10.10;99.90;;;;;;5055430;22;20560;-81
2021/12/01 01:57:52;;;;;;;7.47;2.38;;;9.80;99.90;;;;;;5042531;28;20037;-80
2021/12/01 02:00:18;;;;;;;8.43;2.25;;;9.50;99.90;;;;;;5046538;23;20054;-81
2021/12/01 02:02:45;;;;;;;8.50;2.38;;;9.70;99.90;;;;;;5005679;23;1095451;-80
2021/12/01 02:05:11;;;;;;;10.18;2.33;;;10.10;99.90;;;;;;5086546;22;20040;-81
2021/12/01 02:07:37;;;;;;;10.35;2.45;;;9.00;99.90;;;;;;5047583;28;20047;-80
2021/12/01 02:10:03;;;;;;;9.57;2.60;;;9.40;99.90;;;;;;5101938;22;20047;-81
2021/12/01 02:12:29;;;;;;;7.85;2.20;;;9.40;99.90;;;;;;5044136;28;20055;-80
2021/12/01 02:15:01;;;;;;;5.70;1.88;;;9.40;99.90;;;;;;5053468;23;20048;-80
2021/12/01 02:17:27;;;;;;;6.53;2.00;;;9.40;99.90;;;;;;5035285;22;20051;-80
2021/12/01 02:19:53;;;;;;;6.32;1.70;;;9.40;99.90;;;;;;5047056;22;20053;-82
2021/12/01 02:22:19;;;;;;;6.55;1.90;;;9.40;99.90;;;;;;5003826;28;20050;-81
2021/12/01 02:24:46;;;;;;;7.18;1.77;;;9.40;99.90;;;;;;5007137;28;20049;-80
2021/12/01 02:27:13;;;;;;;7.55;1.90;;;9.70;99.90;;;;;;5019530;23;20065;-80
2021/12/01 02:29:39;;;;;;;11.75;2.38;;;10.20;99.90;;;;;;5073702;23;20044;-80
2021/12/01 02:32:05;;;;;;;8.43;2.10;;;10.00;99.90;;;;;;5048947;22;20053;-81
2021/12/01 02:34:38;;;;;;;8.40;2.33;;;9.60;99.90;;;;;;5034812;23;20049;-81
2021/12/01 02:37:05;;;;;;;10.50;2.20;;;9.60;99.90;;;;;;5043580;28;20052;-81
2021/12/01 02:39:31;;;;;;;7.88;2.38;;;9.70;99.90;;;;;;5048041;23;20053;-81
2021/12/01 02:42:00;;;;;;;10.50;2.30;;;9.60;99.90;;;;;;5047223;23;20055;-80
2021/12/01 02:44:27;;;;;;;10.88;2.80;;;10.70;99.90;;;;;;5045832;23;20048;-80
2021/12/01 02:46:54;;;;;;;11.95;2.08;;;9.60;99.90;;;;;;5062317;23;20052;-81
2021/12/01 02:49:24;;;;;;;11.05;2.17;;;9.80;99.90;;;;;;5060073;23;20036;-80
2021/12/01 02:51:56;;;;;;;11.55;2.58;;;9.50;99.90;;;;;;5065108;28;20394;-81
2021/12/01 02:54:24;;;;;;;12.63;2.13;;;9.50;99.90;;;;;;5030590;23;20048;-80
2021/12/01 02:56:52;;;;;;;12.02;2.20;;;10.10;99.90;;;;;;5053000;23;20045;-80
2021/12/01 02:59:19;;;;;;;15.18;2.60;;;9.50;99.90;;;;;;5036889;23;20110;-81
2021/12/01 03:01:45;;;;;;;11.15;2.70;;;9.50;99.90;;;;;;5074907;22;20053;-80
2021/12/01 03:04:13;;;;;;;11.88;2.53;;;9.50;99.90;;;;;;5051100;22;20045;-81
2021/12/01 03:06:40;;;;;;;14.27;3.00;;;10.10;99.90;;;;;;5041136;22;20057;-80
2021/12/01 03:09:07;;;;;;;13.35;2.63;;;10.20;99.90;;;;;;5022640;23;20457;-81
2021/12/01 03:11:34;;;;;;;15.63;2.72;;;10.10;99.90;;;;;;5014755;23;20057;-81
2021/12/01 03:14:00;;;;;;;12.98;2.40;;;9.40;99.90;;;;;;5006400;28;20056;-81
2021/12/01 03:16:26;;;;;;;13.23;2.55;;;9.50;99.90;;;;;;5005512;28;20038;-80
2021/12/01 03:18:52;;;;;;;13.27;2.40;;;9.40;99.90;;;;;;5045863;23;20071;-80
2021/12/01 03:21:19;;;;;;;12.85;2.33;;;10.40;99.90;;;;;;5047475;28;20040;-80
2021/12/01 03:23:45;;;;;;;18.20;2.22;;;9.60;99.90;;;;;;5047580;28;20045;-80
2021/12/01 03:26:11;;;;;;;16.45;2.35;;;9.40;99.90;;;;;;5046877;28;20357;-81
2021/12/01 03:28:38;;;;;;;12.93;1.95;;;10.20;99.90;;;;;;5049347;23;20068;-80
2021/12/01 03:31:04;;;;;;;13.25;1.95;;;10.30;99.90;;;;;;5051397;23;20085;-81
2021/12/01 03:33:30;;;;;;;18.02;2.92;;;10.20;99.90;;;;;;5043392;28;20045;-80
2021/12/01 03:35:56;;;;;;;13.32;2.40;;;9.60;99.90;;;;;;5057090;22;20053;-81
2021/12/01 03:38:26;;;;;;;11.70;2.60;;;10.30;99.90;;;;;;5052964;23;20652;-81
2021/12/01 03:40:52;;;;;;;20.13;3.15;;;9.70;99.90;;;;;;5035128;23;20058;-81
2021/12/01 03:43:18;;;;;;;18.25;2.72;;;9.30;99.90;;;;;;5019518;22;20746;-81
2021/12/01 03:45:45;;;;;;;16.55;2.67;;;9.30;99.90;;;;;;5040096;23;20097;-80
2021/12/01 03:48:11;;;;;;;16.02;3.20;;;10.20;99.90;;;;;;5030569;22;20049;-79
2021/12/01 03:50:38;;;;;;;23.30;3.15;;;9.40;99.90;;;;;;5026615;28;20079;-80
2021/12/01 03:53:04;;;;;;;12.73;2.72;;;9.90;99.90;;;;;;5027276;28;20045;-80
2021/12/01 03:55:30;;;;;;;16.67;2.78;;;9.40;99.90;;;;;;5074115;23;20056;-80
2021/12/01 03:57:56;;;;;;;14.35;2.25;;;9.90;99.90;;;;;;5065951;28;20036;-79
2021/12/01 04:00:21;;;;;;;20.58;2.90;;;9.80;99.90;;;;;;5064401;23;20080;-81
2021/12/01 04:02:47;;;;;;;15.90;2.80;;;9.20;99.90;;;;;;5059749;28;20056;-81
2021/12/01 04:05:13;;;;;;;16.92;2.75;;;9.90;99.90;;;;;;5042497;28;20045;-80
2021/12/01 04:07:40;;;;;;;8.15;2.15;;;9.20;99.90;;;;;;5035459;23;20049;-80
2021/12/01 04:10:09;;;;;;;10.52;2.10;;;10.00;99.90;;;;;;5050048;23;20065;-81
2021/12/01 04:12:35;;;;;;;10.65;3.10;;;9.20;99.90;;;;;;5026318;23;20099;-79
2021/12/01 04:15:02;;;;;;;10.88;3.17;;;9.20;99.90;;;;;;5009323;28;20472;-80
2021/12/01 04:17:28;;;;;;;12.38;2.78;;;9.30;99.90;;;;;;5007022;28;20049;-80
2021/12/01 04:19:57;;;;;;;6.63;2.50;;;10.10;99.90;;;;;;5028678;23;20064;-80
2021/12/01 04:22:23;;;;;;;7.93;2.40;;;9.30;99.90;;;;;;5002673;28;20069;-80
2021/12/01 04:24:49;;;;;;;6.47;2.88;;;9.90;99.90;;;;;;4987829;28;20049;-80
2021/12/01 04:27:14;;;;;;;6.13;2.83;;;9.90;99.90;;;;;;5021609;28;20070;-80
2021/12/01 04:29:40;;;;;;;6.45;2.88;;;9.60;99.90;;;;;;4987510;28;20481;-80
2021/12/01 04:32:08;;;;;;;5.93;3.25;;;9.40;99.90;;;;;;4987729;28;20120;-80
2021/12/01 04:34:37;;;;;;;6.70;3.13;;;9.30;99.90;;;;;;4986894;28;20052;-81
2021/12/01 04:37:03;;;;;;;6.68;3.72;;;9.40;99.90;;;;;;5020700;28;20369;-80
2021/12/01 04:39:29;;;;;;;5.57;3.30;;;9.30;99.90;;;;;;5020760;28;20116;-80
2021/12/01 04:44:22;;;;;;;6.55;3.38;;;9.30;99.90;;;;;;5059140;22;20051;-80
2021/12/01 04:46:52;;;;;;;4.15;2.70;;;9.30;99.90;;;;;;5024772;28;20056;-81
2021/12/01 04:49:19;;;;;;;4.03;2.42;;;9.30;99.90;;;;;;5026046;23;20503;-80
2021/12/01 04:51:49;;;;;;;4.90;2.22;;;10.10;99.90;;;;;;5040130;23;20041;-82
2021/12/01 04:54:15;;;;;;;3.15;1.90;;;9.30;99.90;;;;;;5045225;23;20042;-80
2021/12/01 04:56:44;;;;;;;3.85;1.95;;;9.30;99.90;;;;;;5021035;23;20516;-80
2021/12/01 04:59:10;;;;;;;3.08;1.85;;;10.00;99.90;;;;;;5002940;28;20049;-80
2021/12/01 05:01:37;;;;;;;3.63;1.58;;;9.80;99.90;;;;;;5002029;28;20038;-80
2021/12/01 05:04:04;;;;;;;2.60;1.30;;;9.40;99.90;;;;;;5002207;28;20046;-81
2021/12/01 05:06:30;;;;;;;2.60;1.30;;;9.20;99.90;;;;;;5022771;23;20464;-80
2021/12/01 05:08:56;;;;;;;2.70;1.48;;;9.30;99.90;;;;;;5022201;28;20140;-81
2021/12/01 05:11:22;;;;;;;2.25;1.10;;;10.00;99.90;;;;;;5022104;28;20053;-80
2021/12/01 05:13:47;;;;;;;2.30;0.93;;;9.60;99.90;;;;;;5091497;23;20078;-82
2021/12/01 05:16:13;;;;;;;2.70;1.10;;;9.60;99.90;;;;;;5084420;22;20510;-80
2021/12/01 05:18:39;;;;;;;2.58;1.10;;;10.10;99.90;;;;;;5054633;23;20078;-81
2021/12/01 05:21:05;;;;;;;3.10;1.23;;;9.50;99.90;;;;;;5060729;22;20111;-80
2021/12/01 05:23:31;;;;;;;2.65;1.40;;;9.00;99.90;;;;;;5022117;28;20043;-80
2021/12/01 05:25:57;;;;;;;3.35;1.45;;;9.00;99.90;;;;;;5012501;23;20053;-81
2021/12/01 05:28:23;;;;;;;3.13;1.55;;;9.60;99.90;;;;;;5035142;23;20050;-80
2021/12/01 05:30:52;;;;;;;3.13;1.58;;;9.10;99.90;;;;;;5018467;23;20475;-81
2021/12/01 05:33:18;;;;;;;2.67;1.42;;;9.40;99.90;;;;;;4983210;28;20116;-81
2021/12/01 05:35:46;;;;;;;3.00;1.83;;;9.60;99.90;;;;;;4984917;28;20042;-81
2021/12/01 05:38:14;;;;;;;4.00;1.77;;;9.90;99.90;;;;;;5001980;28;20048;-80
2021/12/01 05:40:40;;;;;;;3.83;2.05;;;9.50;99.90;;;;;;5002619;28;20460;-81
2021/12/01 05:43:06;;;;;;;5.25;2.40;;;9.60;99.90;;;;;;5043860;23;20072;-81
2021/12/01 05:45:32;;;;;;;4.88;2.50;;;9.50;99.90;;;;;;5027447;23;20083;-81
2021/12/01 05:47:58;;;;;;;5.72;2.90;;;8.80;99.90;;;;;;5016971;22;20052;-82
2021/12/01 05:50:24;;;;;;;7.53;3.00;;;8.80;99.90;;;;;;5026362;28;20045;-81
2021/12/01 05:52:50;;;;;;;5.68;2.58;;;8.80;99.90;;;;;;5043553;28;20040;-81
2021/12/01 05:55:16;;;;;;;7.95;2.85;;;8.80;99.90;;;;;;5055616;22;20057;-81
2021/12/01 05:57:41;;;;;;;4.65;2.60;;;8.80;99.90;;;;;;5039317;23;20455;-81
2021/12/01 06:00:11;;;;;;;4.38;2.15;;;8.70;99.90;;;;;;5021643;28;20107;-80
2021/12/01 06:02:37;;;;;;;5.22;2.90;;;8.70;99.90;;;;;;5005536;28;20052;-81
2021/12/01 06:05:04;;;;;;;5.28;2.75;;;8.70;99.90;;;;;;5067931;23;20043;-81
2021/12/01 06:07:30;;;;;;;6.35;3.13;;;8.80;99.90;;;;;;5043340;28;20048;-80
2021/12/01 06:10:00;;;;;;;6.30;3.30;;;9.70;99.90;;;;;;5069395;22;20041;-82
2021/12/01 06:12:25;;;;;;;6.47;2.92;;;9.40;99.90;;;;;;5022526;28;20053;-81
2021/12/01 06:14:51;;;;;;;5.63;2.78;;;9.70;99.90;;;;;;5027541;23;20065;-80
2021/12/01 06:17:17;;;;;;;5.50;2.63;;;9.10;99.90;;;;;;5045235;22;20105;-81
2021/12/01 06:19:43;;;;;;;5.72;2.92;;;8.70;99.90;;;;;;5054675;23;20052;-81
2021/12/01 06:22:09;;;;;;;5.40;3.00;;;8.80;99.90;;;;;;5059506;28;20132;-81
2021/12/01 06:24:35;;;;;;;4.93;2.78;;;8.90;99.90;;;;;;5051271;22;20519;-81
2021/12/01 06:27:01;;;;;;;6.20;3.08;;;8.70;99.90;;;;;;5020731;28;20046;-80
2021/12/01 06:29:27;;;;;;;5.55;3.20;;;8.70;99.90;;;;;;5053601;23;20112;-80
2021/12/01 06:31:59;;;;;;;5.40;3.30;;;9.60;99.90;;;;;;5043121;22;20144;31
2021/12/01 06:34:25;;;;;;;5.65;2.97;;;9.60;99.90;;;;;;5013425;23;20045;-81
2021/12/01 06:36:51;;;;;;;5.45;2.47;;;9.70;99.90;;;;;;5042059;28;20056;-81
2021/12/01 06:39:17;;;;;;;4.55;2.60;;;9.20;99.90;;;;;;5057829;28;20063;-81
2021/12/01 06:41:43;;;;;;;5.55;2.70;;;8.90;99.90;;;;;;5036347;23;20404;-80
2021/12/01 06:44:09;;;;;;;5.82;3.55;;;9.10;99.90;;;;;;5001600;28;20409;-81
2021/12/01 06:46:35;;;;;;;5.18;3.15;;;9.20;99.90;;;;;;5001956;28;20125;-80
2021/12/01 06:49:01;;;;;;;7.07;3.58;;;8.70;99.90;;;;;;5041341;23;20499;-80
2021/12/01 06:51:26;;;;;;;6.50;3.70;;;8.70;99.90;;;;;;5041042;28;20033;-81
2021/12/01 06:53:52;;;;;;;6.72;3.63;;;9.70;99.90;;;;;;5041422;28;20045;-81
2021/12/01 06:56:19;;;;;;;6.32;3.75;;;9.60;99.90;;;;;;5043938;23;20052;-81
2021/12/01 06:58:45;;;;;;;7.65;4.15;;;9.10;99.90;;;;;;5033398;23;20057;-81
2021/12/01 07:01:12;;;;;;;7.05;3.50;;;9.70;99.90;;;;;;5024088;28;20037;-81
2021/12/01 07:03:38;;;;;;;7.40;4.30;;;9.80;99.90;;;;;;5023071;28;20128;-81
2021/12/01 07:06:04;;;;;;;8.88;4.30;;;8.70;99.90;;;;;;5024161;28;20644;-80
2021/12/01 07:08:30;;;;;;;8.95;4.88;;;9.50;99.90;;;;;;5043394;23;20049;-81
2021/12/01 07:10:55;;;;;;;9.18;4.85;;;8.70;99.90;;;;;;5043625;23;20147;-82
2021/12/01 07:13:21;;;;;;;10.05;5.47;;;8.70;99.90;;;;;;5059393;23;20060;-82
2021/12/01 07:15:47;;;;;;;10.55;5.25;;;8.70;99.90;;;;;;5032465;23;20053;-83
2021/12/01 07:18:13;;;;;;;10.07;5.95;;;9.50;99.90;;;;;;5038950;23;20079;-80
2021/12/01 07:20:38;;;;;;;10.43;5.82;;;8.70;99.90;;;;;;5051204;23;20481;-82
2021/12/01 07:23:04;;;;;;;9.07;5.53;;;8.70;99.90;;;;;;5051016;23;20049;-81
2021/12/01 07:25:31;;;;;;;11.75;6.05;;;9.10;99.90;;;;;;5036716;23;20070;-81
2021/12/01 07:27:57;;;;;;;9.35;4.60;;;8.80;99.90;;;;;;5016611;28;20038;-82
2021/12/01 07:30:23;;;;;;;9.55;5.53;;;9.40;99.90;;;;;;5042163;23;20072;-81
2021/12/01 07:32:50;;;;;;;8.68;4.85;;;9.10;99.90;;;;;;5040352;23;20490;-82
2021/12/01 07:35:16;;;;;;;10.30;4.60;;;8.90;99.90;;;;;;5040784;23;20057;-82
2021/12/01 07:37:42;;;;;;;9.00;4.88;;;9.40;99.90;;;;;;5017370;28;20389;-81
2021/12/01 07:40:08;;;;;;;10.73;5.30;;;8.90;99.90;;;;;;5000864;28;20049;-81
2021/12/01 07:42:34;;;;;;;9.95;5.63;;;8.80;99.90;;;;;;5000518;28;20046;-83
2021/12/01 07:45:00;;;;;;;11.80;5.15;;;9.90;99.90;;;;;;5025806;23;20046;-82
2021/12/01 07:47:25;;;;;;;11.18;5.68;;;8.80;99.90;;;;;;5024085;23;20052;-81
2021/12/01 07:49:55;;;;;;;12.07;5.72;;;8.70;99.90;;;;;;5011756;23;20100;-80
2021/12/01 07:52:21;;;;;;;9.13;5.07;;;8.80;99.90;;;;;;5031715;22;20678;-81
2021/12/01 07:54:47;;;;;;;10.43;5.32;;;9.60;99.90;;;;;;5045418;23;20488;-82
2021/12/01 07:57:15;;;;;;;12.35;5.65;;;9.20;99.90;;;;;;5046788;22;20049;-81
2021/12/01 07:59:41;;;;;;;12.60;5.32;;;9.10;99.90;;;;;;5046925;22;20054;-81
2021/12/01 08:02:07;;;;;;;10.73;4.82;;;8.80;99.90;;;;;;5033058;22;20085;-80
2021/12/01 08:04:33;;;;;;;7.38;3.15;;;9.40;99.90;;;;;;5046066;23;20049;-81
2021/12/01 08:07:00;;;;;;;7.18;3.65;;;8.90;99.90;;;;;;5063563;23;20048;-81
2021/12/01 08:09:26;;;;;;;9.82;4.72;;;9.50;99.90;;;;;;5078831;28;20044;-81
2021/12/01 08:11:53;;;;;;;9.30;3.92;;;8.80;99.90;;;;;;5056016;22;20061;-81
2021/12/01 08:14:19;;;;;;;8.80;3.42;;;9.40;99.90;;;;;;5032176;23;20132;-81
2021/12/01 08:16:46;;;;;;;6.88;2.88;;;9.20;99.90;;;;;;5027292;23;20049;-81
2021/12/01 08:19:12;;;;;;;9.43;2.88;;;8.60;99.90;;;;;;5030391;23;20049;-81
2021/12/01 08:21:37;;;;;;;11.50;2.75;;;9.50;99.90;;;;;;5039906;23;20046;-81
2021/12/01 08:24:04;;;;;;;8.02;2.03;;;9.40;99.90;;;;;;5040281;28;20057;-81
2021/12/01 08:26:30;;;;;;;8.25;2.22;;;8.40;99.90;;;;;;5030157;22;20050;-82
2021/12/01 08:28:56;;;;;;;12.63;2.38;;;8.90;99.90;;;;;;5031507;23;20184;-82
2021/12/01 08:31:22;;;;;;;10.43;2.38;;;8.20;99.90;;;;;;5045274;28;20072;-80
2021/12/01 08:33:49;;;;;;;7.22;1.58;;;8.30;99.90;;;;;;5025598;23;20125;-82
2021/12/01 08:36:15;;;;;;;10.65;2.28;;;8.20;99.90;;;;;;5017329;22;20032;-80
2021/12/01 08:38:41;;;;;;;13.20;2.10;;;8.70;99.90;;;;;;5053284;23;20183;-81
2021/12/01 08:41:08;;;;;;;13.43;2.17;;;8.20;99.90;;;;;;5030213;23;20067;-82
2021/12/01 08:43:35;;;;;;;5.95;1.73;;;8.20;99.90;;;;;;5041664;28;20045;-82
2021/12/01 08:46:01;;;;;;;9.10;1.70;;;8.70;99.90;;;;;;5043980;23;20491;-81
2021/12/01 08:48:28;;;;;;;7.18;1.48;;;8.30;99.90;;;;;;5080513;22;20434;-81
2021/12/01 08:50:56;;;;;;;9.57;1.40;;;8.20;99.90;;;;;;5081634;23;20055;-81
2021/12/01 08:53:25;;;;;;;5.93;1.45;;;8.20;99.90;;;;;;5048164;22;20045;-81
2021/12/01 08:55:50;;;;;;;7.38;1.33;;;8.10;99.90;;;;;;5063049;23;20055;-82
2021/12/01 08:58:16;;;;;;;14.43;2.17;;;8.20;99.90;;;;;;5077318;22;20065;-81
2021/12/01 09:00:45;;;;;;;9.27;1.63;;;8.30;99.90;;;;;;5061379;23;20086;-81
2021/12/01 09:03:16;;;;;;;10.45;1.83;;;8.30;99.90;;;;;;5040971;28;20033;-83
2021/12/01 09:05:44;;;;;;;6.78;1.40;;;9.20;99.90;;;;;;5078481;23;20052;-82
2021/12/01 09:08:11;;;;;;;9.05;1.67;;;9.10;99.90;;;;;;5060754;28;20047;-81
2021/12/01 09:10:36;;;;;;;11.45;1.30;;;9.10;99.90;;;;;;5059038;23;20049;-83
2021/12/01 09:13:04;;;;;;;8.23;1.30;;;8.30;99.90;;;;;;5021254;28;20377;-81
2021/12/01 09:15:30;;;;;;;7.47;1.80;;;8.30;99.90;;;;;;5037975;28;20499;-82
2021/12/01 09:17:57;;;;;;;6.60;1.55;;;8.90;99.90;;;;;;5021496;28;20072;-81
2021/12/01 09:20:23;;;;;;;6.10;1.52;;;8.60;99.90;;;;;;5033181;23;20060;-81
2021/12/01 09:22:53;;;;;;;10.75;2.22;;;8.80;99.90;;;;;;5035948;23;20041;-81
2021/12/01 09:25:19;;;;;;;14.88;2.03;;;8.10;99.90;;;;;;5021905;22;20049;-81
2021/12/01 09:27:46;;;;;;;9.40;1.92;;;9.20;99.90;;;;;;5033018;23;20056;-81
2021/12/01 09:30:14;;;;;;;10.50;1.70;;;9.00;99.90;;;;;;5038823;22;20069;-81
2021/12/01 09:32:40;;;;;;;8.77;1.40;;;8.60;99.90;;;;;;5035579;23;20135;-82
2021/12/01 09:35:07;;;;;;;7.85;1.73;;;8.30;99.90;;;;;;5043898;28;20082;-81
2021/12/01 09:37:33;;;;;;;9.07;1.90;;;8.10;99.90;;;;;;5045077;28;20550;-80
2021/12/01 09:39:59;;;;;;;13.57;2.30;;;8.90;99.90;;;;;;5040215;23;20132;-81
2021/12/01 09:42:25;;;;;;;10.82;1.80;;;9.00;99.90;;;;;;5005097;28;20067;-81
2021/12/01 09:44:57;;;;;;;10.13;1.60;;;9.00;99.90;;;;;;5039395;22;20045;-81
2021/12/01 09:47:24;;;;;;;8.38;1.90;;;8.40;99.90;;;;;;4999978;28;20046;-82
2021/12/01 09:49:57;;;;;;;13.38;2.10;;;9.00;99.90;;;;;;5019622;23;20145;-82
2021/12/01 09:52:22;;;;;;;10.13;1.65;;;8.40;99.90;;;;;;4944636;28;20046;-81
2021/12/01 09:54:49;;;;;;;11.48;1.58;;;8.50;99.90;;;;;;5017988;23;20049;-81
2021/12/01 09:57:14;;;;;;;17.65;2.20;;;8.60;99.90;;;;;;5034962;23;20032;-80
2021/12/01 09:59:42;;;;;;;10.93;1.95;;;8.60;99.90;;;;;;5004631;28;20053;-81
2021/12/01 10:02:09;;;;;;;8.80;1.88;;;8.70;99.90;;;;;;5017478;23;20073;-81
2021/12/01 10:04:34;;;;;;;15.75;2.60;;;8.90;99.90;;;;;;5034342;23;20042;-82
2021/12/01 10:07:22;;;;;;;11.68;2.75;;;8.70;99.90;;;;;;5044424;23;20056;-82
2021/12/01 10:09:52;;;;;;;10.65;1.80;;;8.50;99.90;;;;;;5027774;23;20037;-81
2021/12/01 10:12:18;;;;;;;9.90;1.80;;;8.70;99.90;;;;;;5021123;28;20091;-82
2021/12/01 10:14:48;;;;;;;10.02;1.67;;;9.40;99.90;;;;;;5020788;28;20033;-84
2021/12/01 10:17:32;;;;;;;8.40;1.92;;;8.40;99.90;;;;;;5029260;23;20344;-82
2021/12/01 10:20:19;;;;;;;4.10;1.13;;;9.50;99.90;;;;;;5042413;23;20048;-82
2021/12/01 10:23:12;;;;;;;8.52;1.67;;;8.40;99.90;;;;;;5021746;23;20136;-81
2021/12/01 10:25:38;;;;;;;13.85;2.08;;;8.40;99.90;;;;;;5040680;28;20403;-82
2021/12/01 10:28:04;;;;;;;13.40;1.85;;;8.50;99.90;;;;;;5058258;28;20041;-82
2021/12/01 10:30:43;;;;;;;16.27;1.75;;;8.70;99.90;;;;;;5040729;28;20055;-81
2021/12/01 10:33:15;;;;;;;10.13;1.55;;;8.40;99.90;;;;;;5041078;28;20040;-81
2021/12/01 10:35:41;;;;;;;5.13;1.42;;;9.30;99.90;;;;;;5042058;28;20422;-82
2021/12/01 10:38:09;;;;;;;11.50;1.50;;;8.40;99.90;;;;;;5048216;23;20705;-82
2021/12/01 10:40:38;;;;;;;11.68;1.80;;;8.50;99.90;;;;;;5003359;28;20098;-81
2021/12/01 10:43:12;;;;;;;7.97;1.90;;;8.40;99.90;;;;;;4999795;23;20041;-81
2021/12/01 10:45:48;;;;;;;9.75;1.80;;;8.20;99.90;;;;;;5041122;28;20064;-81
2021/12/01 10:48:24;;;;;;;10.15;1.75;;;8.70;99.90;;;;;;5058868;28;20121;-80
2021/12/01 10:53:18;;;;;;;12.35;2.20;;;8.20;99.90;;;;;;5089186;22;20123;-82
2021/12/01 10:55:45;;;;;;;15.43;2.10;;;8.40;99.90;;;;;;5053087;23;20097;-81
2021/12/01 10:58:11;;;;;;;17.35;2.20;;;8.30;99.90;;;;;;5021366;28;20072;-81
2021/12/01 11:00:53;;;;;;;13.57;2.40;;;8.10;99.90;;;;;;5053877;23;20048;-80
2021/12/01 11:03:26;;;;;;;12.57;1.83;;;8.30;99.90;;;;;;5076746;28;20052;-81
2021/12/01 11:06:20;;;;;;;13.57;2.63;;;8.50;99.90;;;;;;5042315;22;20055;-81
2021/12/01 11:08:49;;;;;;;15.98;2.50;;;8.90;99.90;;;;;;5034762;23;20049;-82
2021/12/01 11:11:16;;;;;;;14.18;3.03;;;8.80;99.90;;;;;;5040764;28;20049;-81
2021/12/01 11:13:44;;;;;;;17.65;2.92;;;8.30;99.90;;;;;;5034093;22;20049;-81
2021/12/01 11:16:12;;;;;;;15.10;2.08;;;8.80;99.90;;;;;;5034218;23;20053;-82
2021/12/01 11:18:41;;;;;;;14.48;2.85;;;8.60;99.90;;;;;;5080387;28;20052;-82
2021/12/01 11:21:16;;;;;;;14.38;2.58;;;8.30;99.90;;;;;;5067710;22;20417;-81
2021/12/01 11:23:51;;;;;;;19.48;3.33;;;8.30;99.90;;;;;;5039600;23;20045;-81
2021/12/01 11:26:22;;;;;;;17.00;2.75;;;8.30;99.90;;;;;;5022354;28;20053;-80
2021/12/01 11:28:51;;;;;;;17.08;2.75;;;8.30;99.90;;;;;;5024901;28;20056;-82
2021/12/01 11:31:16;;;;;;;12.07;2.08;;;9.00;99.90;;;;;;5052719;23;20106;-81
2021/12/01 11:33:46;;;;;;;14.57;2.13;;;8.30;99.90;;;;;;5038249;23;20046;-81
2021/12/01 11:36:20;;;;;;;21.67;2.75;;;8.70;99.90;;;;;;5029364;22;20112;-80
2021/12/01 11:38:50;;;;;;;14.02;3.05;;;8.20;99.90;;;;;;5031254;23;20041;-83
2021/12/01 11:41:17;;;;;;;15.88;2.72;;;8.20;99.90;;;;;;5036253;23;20037;-80
2021/12/01 11:43:43;;;;;;;13.82;2.63;;;8.20;99.90;;;;;;5031672;23;20050;-81
2021/12/01 11:46:09;;;;;;;15.52;2.28;;;8.10;99.90;;;;;;5025713;22;20380;-83
2021/12/01 11:48:43;;;;;;;10.27;2.47;;;8.10;99.90;;;;;;5059679;22;20063;-81
2021/12/01 11:51:28;;;;;;;17.08;2.55;;;8.70;99.90;;;;;;5048077;22;20035;-80
2021/12/01 11:54:09;;;;;;;12.65;2.60;;;8.10;99.90;;;;;;5063755;22;20045;-82
2021/12/01 11:56:37;;;;;;;14.30;2.70;;;8.20;99.90;;;;;;5031407;23;20147;-82
2021/12/01 11:59:15;;;;;;;17.27;3.13;;;8.40;99.90;;;;;;5032798;23;20049;-81
2021/12/01 12:02:02;;;;;;;16.02;2.90;;;8.40;99.90;;;;;;5034199;23;20056;-82
2021/12/01 12:04:42;;;;;;;22.58;2.95;;;9.20;99.90;;;;;;5052760;23;20051;-80
2021/12/01 12:07:15;;;;;;;20.25;3.80;;;8.60;99.90;;;;;;5048862;23;20475;-81
2021/12/01 12:09:41;;;;;;;18.70;3.47;;;8.30;99.90;;;;;;5030176;23;20063;-81
2021/12/01 12:12:13;;;;;;;14.57;3.20;;;9.10;99.90;;;;;;5064155;28;20052;-81
2021/12/01 12:14:49;;;;;;;17.85;3.90;;;8.00;99.90;;;;;;5076209;22;20064;-81
2021/12/01 12:17:21;;;;;;;20.33;3.15;;;8.90;99.90;;;;;;4991672;28;20080;-82
2021/12/01 12:19:53;;;;;;;17.67;3.33;;;7.90;99.90;;;;;;5007084;28;20049;-81
2021/12/01 12:22:27;;;;;;;17.35;2.80;;;7.80;99.90;;;;;;5033484;23;20115;-81
2021/12/01 12:24:55;;;;;;;14.05;2.63;;;7.90;99.90;;;;;;5017175;23;20120;-82
2021/12/01 12:27:29;;;;;;;16.00;2.80;;;8.70;99.90;;;;;;5027879;23;20111;-81
2021/12/01 12:32:22;;;;;;;13.43;2.17;;;7.90;99.90;;;;;;5092989;22;20040;-82
2021/12/01 12:34:54;;;;;;;10.50;1.98;;;7.90;99.90;;;;;;5070350;28;20052;-81
2021/12/01 12:37:25;;;;;;;13.93;2.05;;;8.00;99.90;;;;;;5066281;22;20029;-81
2021/12/01 12:39:56;;;;;;;10.15;2.17;;;8.50;99.90;;;;;;5026065;28;20061;-81
2021/12/01 12:42:22;;;;;;;7.47;1.80;;;8.00;99.90;;;;;;4982820;28;20122;-82
2021/12/01 12:44:53;;;;;;;9.45;1.40;;;8.10;99.90;;;;;;4967281;28;20046;-82
2021/12/01 12:47:49;;;;;;;8.27;1.30;;;8.10;99.90;;;;;;4986703;23;20120;-82
2021/12/01 12:50:21;;;;;;;9.43;1.58;;;7.90;99.90;;;;;;4961446;23;20527;-81
2021/12/01 12:53:04;;;;;;;9.10;1.40;;;7.90;99.90;;;;;;4987371;28;20046;-82
2021/12/01 12:55:30;;;;;;;14.18;2.58;;;7.90;99.90;;;;;;5005413;28;20038;-81
2021/12/01 12:57:59;;;;;;;9.73;1.92;;;8.80;99.90;;;;;;5027959;23;20057;-81
2021/12/01 13:00:53;;;;;;;9.52;1.50;;;8.00;99.90;;;;;;5033541;23;20048;-82
2021/12/01 13:03:26;;;;;;;10.32;1.92;;;8.10;99.90;;;;;;5026480;28;20119;-82
2021/12/01 13:05:59;;;;;;;9.10;1.83;;;8.60;99.90;;;;;;5022272;23;20053;-81
2021/12/01 13:08:28;;;;;;;8.80;1.70;;;8.00;99.90;;;;;;5009709;23;20038;-81
2021/12/01 13:11:05;;;;;;;14.52;1.73;;;8.20;99.90;;;;;;5019916;28;20042;-81